createdAt,value
2017-06-17T00:00:06.834Z,15.2
2017-06-17T00:00:34.964Z,15.2
2017-06-17T00:01:03.023Z,15.18
2017-06-17T00:01:31.081Z,15.16
2017-06-17T00:01:59.120Z,15.15
2017-06-17T00:02:27.454Z,15.18
2017-06-17T00:02:55.644Z,15.16
2017-06-17T00:03:23.830Z,15.19
2017-06-17T00:03:51.799Z,15.16
2017-06-17T00:04:19.954Z,15.19
2017-06-17T00:04:48.066Z,15.16
2017-06-17T00:05:16.313Z,15.18
2017-06-17T00:05:44.556Z,15.16
2017-06-17T00:06:12.704Z,15.1
2017-06-17T00:06:40.679Z,15.16
2017-06-17T00:07:08.700Z,15.13
2017-06-17T00:07:36.783Z,15.19
2017-06-17T00:08:04.880Z,15.25
2017-06-17T00:08:32.976Z,15.13
2017-06-17T00:09:00.914Z,15.18
2017-06-17T00:09:28.988Z,15.16
2017-06-17T00:09:57.164Z,15.19
2017-06-17T00:10:25.349Z,15.19
2017-06-17T00:10:53.538Z,15.2
2017-06-17T00:11:21.595Z,15.26
2017-06-17T00:11:49.646Z,15.22
2017-06-17T00:12:17.907Z,15.16
2017-06-17T00:12:46.081Z,15.2
2017-06-17T00:13:14.251Z,15.22
2017-06-17T00:13:42.299Z,15.15
2017-06-17T00:14:10.406Z,15.16
2017-06-17T00:14:38.565Z,15.18
2017-06-17T00:15:06.739Z,15.08
2017-06-17T00:15:34.727Z,15.12
2017-06-17T00:16:02.912Z,15.12
2017-06-17T00:16:30.907Z,15.07
2017-06-17T00:16:59.081Z,15.08
2017-06-17T00:17:27.374Z,15.07
2017-06-17T00:17:55.381Z,15.01
2017-06-17T00:18:23.668Z,15.01
2017-06-17T00:18:51.733Z,14.93
2017-06-17T00:19:19.919Z,14.93
2017-06-17T00:19:48.122Z,14.87
2017-06-17T00:20:16.235Z,14.94
2017-06-17T00:20:44.275Z,14.9
2017-06-17T00:21:12.447Z,14.89
2017-06-17T00:21:40.560Z,15
2017-06-17T00:22:08.741Z,14.89
2017-06-17T00:22:37.003Z,14.93
2017-06-17T00:23:05.120Z,14.82
2017-06-17T00:23:32.956Z,14.93
2017-06-17T00:24:01.093Z,14.94
2017-06-17T00:24:29.092Z,14.9
2017-06-17T00:24:57.238Z,14.95
2017-06-17T00:25:25.437Z,14.97
2017-06-17T00:25:53.506Z,14.89
2017-06-17T00:26:21.685Z,14.77
2017-06-17T00:26:49.868Z,14.85
2017-06-17T00:27:17.969Z,14.83
2017-06-17T00:27:46.231Z,14.83
2017-06-17T00:28:14.406Z,14.83
2017-06-17T00:28:42.434Z,14.79
2017-06-17T00:29:10.507Z,14.71
2017-06-17T00:29:38.718Z,14.7
2017-06-17T00:30:06.599Z,14.79
2017-06-17T00:30:34.768Z,14.86
2017-06-17T00:31:02.726Z,14.82
2017-06-17T00:31:30.942Z,14.83
2017-06-17T00:31:59.033Z,14.9
2017-06-17T00:32:27.177Z,14.79
2017-06-17T00:32:55.318Z,14.8
2017-06-17T00:33:23.523Z,14.93
2017-06-17T00:33:51.585Z,14.83
2017-06-17T00:34:19.626Z,14.9
2017-06-17T00:34:47.569Z,14.9
2017-06-17T00:35:15.637Z,14.98
2017-06-17T00:35:43.718Z,14.97
2017-06-17T00:36:11.805Z,14.95
2017-06-17T00:36:40.032Z,14.93
2017-06-17T00:37:08.162Z,14.95
2017-06-17T00:37:36.376Z,14.94
2017-06-17T00:38:04.453Z,14.95
2017-06-17T00:38:32.614Z,15
2017-06-17T00:39:00.795Z,14.93
2017-06-17T00:39:28.875Z,15
2017-06-17T00:39:57.056Z,15.05
2017-06-17T00:40:25.166Z,15.01
2017-06-17T00:40:53.395Z,15.01
2017-06-17T00:41:21.590Z,14.93
2017-06-17T00:41:49.666Z,14.94
2017-06-17T00:42:17.832Z,14.86
2017-06-17T00:42:46.141Z,14.97
2017-06-17T00:43:14.206Z,14.9
2017-06-17T00:43:42.355Z,14.95
2017-06-17T00:44:10.398Z,14.95
2017-06-17T00:44:38.594Z,14.94
2017-06-17T00:45:06.480Z,14.97
2017-06-17T00:45:34.636Z,14.93
2017-06-17T00:46:02.749Z,14.89
2017-06-17T00:46:30.942Z,14.8
2017-06-17T00:46:59.083Z,14.83
2017-06-17T00:47:27.072Z,14.83
2017-06-17T00:47:55.150Z,14.75
2017-06-17T00:48:23.177Z,14.83
2017-06-17T00:48:51.289Z,14.82
2017-06-17T00:49:19.459Z,14.71
2017-06-17T00:49:47.529Z,14.74
2017-06-17T00:50:15.618Z,14.75
2017-06-17T00:50:43.709Z,14.74
2017-06-17T00:51:11.820Z,14.82
2017-06-17T00:51:39.902Z,14.75
2017-06-17T00:52:08.103Z,14.79
2017-06-17T00:52:36.175Z,14.79
2017-06-17T00:53:04.392Z,14.79
2017-06-17T00:53:32.443Z,14.7
2017-06-17T00:54:00.546Z,14.74
2017-06-17T00:54:28.537Z,14.71
2017-06-17T00:54:56.555Z,14.75
2017-06-17T00:55:24.624Z,14.86
2017-06-17T00:55:52.736Z,14.82
2017-06-17T00:56:20.913Z,14.71
2017-06-17T00:56:49.054Z,14.71
2017-06-17T00:57:17.018Z,14.85
2017-06-17T00:57:45.128Z,14.7
2017-06-17T00:58:13.229Z,14.71
2017-06-17T00:58:41.221Z,14.71
2017-06-17T00:59:09.223Z,14.8
2017-06-17T00:59:37.402Z,14.75
2017-06-17T01:00:05.456Z,14.69
2017-06-17T01:00:33.604Z,14.74
2017-06-17T01:01:01.656Z,14.8
2017-06-17T01:01:29.832Z,14.77
2017-06-17T01:01:58.028Z,14.77
2017-06-17T01:02:26.189Z,14.77
2017-06-17T01:02:54.420Z,14.71
2017-06-17T01:03:22.483Z,14.74
2017-06-17T01:03:50.631Z,14.71
2017-06-17T01:04:18.797Z,14.86
2017-06-17T01:04:46.774Z,14.83
2017-06-17T01:05:14.828Z,14.8
2017-06-17T01:05:42.939Z,14.9
2017-06-17T01:06:10.898Z,14.9
2017-06-17T01:06:38.976Z,14.89
2017-06-17T01:07:07.006Z,14.93
2017-06-17T01:07:35.236Z,15
2017-06-17T01:08:03.524Z,14.94
2017-06-17T01:08:31.610Z,14.97
2017-06-17T01:08:59.814Z,14.98
2017-06-17T01:09:27.783Z,14.95
2017-06-17T01:09:55.847Z,14.97
2017-06-17T01:10:24.061Z,14.97
2017-06-17T01:10:52.262Z,14.95
2017-06-17T01:11:20.429Z,14.93
2017-06-17T01:11:48.608Z,14.93
2017-06-17T01:12:16.679Z,14.87
2017-06-17T01:12:44.745Z,14.94
2017-06-17T01:13:12.936Z,14.9
2017-06-17T01:13:41.015Z,14.95
2017-06-17T01:14:09.182Z,14.98
2017-06-17T01:14:37.242Z,14.89
2017-06-17T01:15:05.407Z,14.86
2017-06-17T01:15:33.468Z,14.97
2017-06-17T01:16:01.489Z,15.02
2017-06-17T01:16:29.575Z,14.95
2017-06-17T01:16:57.599Z,14.93
2017-06-17T01:17:25.768Z,14.94
2017-06-17T01:17:53.918Z,14.86
2017-06-17T01:18:22.102Z,14.89
2017-06-17T01:18:51.010Z,14.98
2017-06-17T01:19:18.959Z,14.97
2017-06-17T01:19:47.117Z,14.95
2017-06-17T01:20:15.215Z,14.89
2017-06-17T01:20:43.267Z,14.93
2017-06-17T01:21:11.261Z,14.9
2017-06-17T01:21:39.457Z,14.83
2017-06-17T01:22:07.631Z,14.77
2017-06-17T01:22:35.827Z,14.8
2017-06-17T01:23:04.018Z,14.83
2017-06-17T01:23:32.229Z,14.8
2017-06-17T01:24:00.355Z,14.83
2017-06-17T01:24:28.563Z,14.85
2017-06-17T01:24:56.549Z,14.85
2017-06-17T01:25:24.700Z,14.85
2017-06-17T01:25:52.904Z,14.9
2017-06-17T01:26:20.985Z,14.86
2017-06-17T01:26:49.099Z,14.93
2017-06-17T01:27:17.204Z,14.95
2017-06-17T01:27:45.288Z,14.89
2017-06-17T01:28:13.585Z,14.94
2017-06-17T01:28:41.670Z,14.9
2017-06-17T01:29:09.637Z,14.86
2017-06-17T01:29:37.716Z,14.9
2017-06-17T01:30:05.566Z,14.9
2017-06-17T01:30:33.582Z,14.93
2017-06-17T01:31:01.677Z,14.94
2017-06-17T01:31:29.743Z,14.87
2017-06-17T01:31:57.845Z,14.89
2017-06-17T01:32:25.900Z,14.95
2017-06-17T01:32:54.118Z,14.87
2017-06-17T01:33:22.301Z,14.93
2017-06-17T01:33:50.493Z,14.89
2017-06-17T01:34:18.662Z,14.98
2017-06-17T01:34:46.837Z,14.94
2017-06-17T01:35:15.057Z,14.87
2017-06-17T01:35:49.492Z,14.95
2017-06-17T01:36:17.683Z,14.95
2017-06-17T01:36:45.763Z,15
2017-06-17T01:37:13.798Z,15.01
2017-06-17T01:37:41.979Z,15
2017-06-17T01:38:10.054Z,14.98
2017-06-17T01:38:38.319Z,15.01
2017-06-17T01:39:06.518Z,14.98
2017-06-17T01:39:34.656Z,14.97
2017-06-17T01:40:02.744Z,15
2017-06-17T01:40:30.788Z,14.97
2017-06-17T01:40:58.955Z,15.01
2017-06-17T01:41:27.101Z,14.97
2017-06-17T01:41:55.261Z,14.95
2017-06-17T01:42:23.422Z,14.98
2017-06-17T01:42:51.541Z,14.87
2017-06-17T01:43:19.908Z,14.94
2017-06-17T01:43:48.132Z,14.98
2017-06-17T01:44:16.233Z,15.01
2017-06-17T01:44:44.396Z,14.98
2017-06-17T01:45:12.521Z,14.89
2017-06-17T01:45:40.724Z,14.98
2017-06-17T01:46:08.922Z,14.97
2017-06-17T01:46:36.802Z,14.93
2017-06-17T01:47:04.909Z,14.85
2017-06-17T01:47:33.009Z,14.89
2017-06-17T01:48:01.096Z,15
2017-06-17T01:48:29.267Z,14.93
2017-06-17T01:48:57.507Z,14.89
2017-06-17T01:49:25.493Z,14.93
2017-06-17T01:49:53.426Z,14.95
2017-06-17T01:50:21.569Z,14.97
2017-06-17T01:50:49.637Z,14.95
2017-06-17T01:51:17.838Z,14.87
2017-06-17T01:51:45.961Z,14.94
2017-06-17T01:52:13.989Z,14.95
2017-06-17T01:52:42.234Z,14.9
2017-06-17T01:53:10.083Z,14.9
2017-06-17T01:53:38.247Z,14.97
2017-06-17T01:54:06.445Z,14.89
2017-06-17T01:54:34.548Z,14.87
2017-06-17T01:55:02.669Z,14.9
2017-06-17T01:55:30.781Z,15
2017-06-17T01:55:58.966Z,14.94
2017-06-17T01:56:27.031Z,14.95
2017-06-17T01:56:55.241Z,14.94
2017-06-17T01:57:23.356Z,14.9
2017-06-17T01:57:51.605Z,14.94
2017-06-17T01:58:19.830Z,14.97
2017-06-17T01:58:48.149Z,14.9
2017-06-17T01:59:16.154Z,14.89
2017-06-17T01:59:44.359Z,14.89
2017-06-17T02:00:12.497Z,14.93
2017-06-17T02:00:40.726Z,14.9
2017-06-17T02:01:08.766Z,14.97
2017-06-17T02:01:36.963Z,14.93
2017-06-17T02:02:05.045Z,14.95
2017-06-17T02:02:33.188Z,14.97
2017-06-17T02:03:01.422Z,14.98
2017-06-17T02:03:29.563Z,14.86
2017-06-17T02:03:57.779Z,14.9
2017-06-17T02:04:25.867Z,14.95
2017-06-17T02:04:54.085Z,14.9
2017-06-17T02:05:22.305Z,14.94
2017-06-17T02:05:50.525Z,14.94
2017-06-17T02:06:18.746Z,14.9
2017-06-17T02:06:46.905Z,14.97
2017-06-17T02:07:15.005Z,15
2017-06-17T02:07:43.121Z,14.9
2017-06-17T02:08:11.243Z,14.94
2017-06-17T02:08:39.286Z,14.94
2017-06-17T02:09:07.428Z,14.9
2017-06-17T02:09:35.628Z,14.89
2017-06-17T02:10:03.755Z,14.85
2017-06-17T02:10:31.883Z,14.85
2017-06-17T02:10:59.906Z,14.75
2017-06-17T02:11:27.974Z,14.74
2017-06-17T02:11:56.162Z,14.74
2017-06-17T02:12:24.286Z,14.75
2017-06-17T02:12:52.439Z,14.66
2017-06-17T02:13:20.673Z,14.67
2017-06-17T02:13:48.971Z,14.63
2017-06-17T02:14:17.226Z,14.7
2017-06-17T02:14:45.363Z,14.63
2017-06-17T02:15:13.510Z,14.64
2017-06-17T02:15:41.562Z,14.57
2017-06-17T02:16:09.672Z,14.56
2017-06-17T02:16:37.940Z,14.57
2017-06-17T02:17:06.246Z,14.53
2017-06-17T02:17:34.457Z,14.52
2017-06-17T02:18:02.710Z,14.53
2017-06-17T02:18:30.796Z,14.52
2017-06-17T02:18:58.987Z,14.53
2017-06-17T02:19:26.930Z,14.52
2017-06-17T02:19:55.034Z,14.51
2017-06-17T02:20:23.243Z,14.49
2017-06-17T02:20:51.477Z,14.56
2017-06-17T02:21:19.633Z,14.56
2017-06-17T02:21:47.851Z,14.56
2017-06-17T02:22:16.103Z,14.48
2017-06-17T02:22:44.330Z,14.59
2017-06-17T02:23:12.410Z,14.59
2017-06-17T02:23:40.748Z,14.53
2017-06-17T02:24:08.980Z,14.51
2017-06-17T02:24:37.195Z,14.57
2017-06-17T02:25:05.393Z,14.52
2017-06-17T02:25:33.607Z,14.44
2017-06-17T02:26:01.818Z,14.46
2017-06-17T02:26:30.135Z,14.48
2017-06-17T02:26:58.126Z,14.49
2017-06-17T02:27:26.356Z,14.48
2017-06-17T02:27:54.451Z,14.48
2017-06-17T02:28:22.677Z,14.51
2017-06-17T02:28:50.803Z,14.49
2017-06-17T02:29:18.922Z,14.53
2017-06-17T02:29:47.113Z,14.44
2017-06-17T02:30:15.359Z,14.42
2017-06-17T02:30:43.348Z,14.46
2017-06-17T02:31:11.559Z,14.44
2017-06-17T02:31:39.722Z,14.53
2017-06-17T02:32:07.863Z,14.48
2017-06-17T02:32:36.002Z,14.46
2017-06-17T02:33:04.189Z,14.46
2017-06-17T02:33:32.324Z,14.41
2017-06-17T02:34:00.447Z,14.46
2017-06-17T02:34:28.447Z,14.42
2017-06-17T02:34:56.649Z,14.45
2017-06-17T02:35:24.696Z,14.39
2017-06-17T02:35:52.905Z,14.33
2017-06-17T02:36:20.940Z,14.38
2017-06-17T02:36:49.048Z,14.34
2017-06-17T02:37:17.267Z,14.31
2017-06-17T02:37:45.475Z,14.26
2017-06-17T02:38:13.556Z,14.3
2017-06-17T02:38:41.761Z,14.34
2017-06-17T02:39:10.001Z,14.26
2017-06-17T02:39:38.121Z,14.15
2017-06-17T02:40:06.163Z,14.2
2017-06-17T02:40:34.073Z,14.27
2017-06-17T02:41:02.282Z,14.24
2017-06-17T02:41:30.429Z,14.2
2017-06-17T02:41:58.612Z,14.27
2017-06-17T02:42:26.723Z,14.33
2017-06-17T02:42:54.879Z,14.38
2017-06-17T02:43:23.083Z,14.39
2017-06-17T02:43:51.266Z,14.33
2017-06-17T02:44:19.553Z,14.38
2017-06-17T02:44:47.581Z,14.33
2017-06-17T02:45:15.682Z,14.41
2017-06-17T02:45:43.803Z,14.3
2017-06-17T02:46:11.723Z,14.34
2017-06-17T02:46:39.918Z,14.46
2017-06-17T02:47:08.165Z,14.42
2017-06-17T02:47:36.218Z,14.41
2017-06-17T02:48:04.329Z,14.45
2017-06-17T02:48:32.584Z,14.33
2017-06-17T02:49:00.927Z,14.3
2017-06-17T02:49:29.040Z,14.38
2017-06-17T02:49:57.296Z,14.33
2017-06-17T02:50:25.474Z,14.33
2017-06-17T02:50:53.686Z,14.34
2017-06-17T02:51:21.745Z,14.34
2017-06-17T02:51:49.814Z,14.41
2017-06-17T02:52:18.062Z,14.34
2017-06-17T02:52:46.296Z,14.3
2017-06-17T02:53:14.285Z,14.39
2017-06-17T02:53:42.324Z,14.42
2017-06-17T02:54:10.471Z,14.36
2017-06-17T02:54:38.682Z,14.31
2017-06-17T02:55:06.921Z,14.36
2017-06-17T02:55:35.152Z,14.24
2017-06-17T02:56:03.371Z,14.27
2017-06-17T02:56:31.570Z,14.23
2017-06-17T02:56:59.615Z,14.19
2017-06-17T02:57:27.786Z,14.2
2017-06-17T02:57:55.848Z,14.21
2017-06-17T02:58:23.989Z,14.21
2017-06-17T02:58:52.204Z,14.21
2017-06-17T02:59:20.483Z,14.15
2017-06-17T02:59:48.702Z,14.16
2017-06-17T03:00:16.917Z,14.12
2017-06-17T03:00:44.909Z,14.08
2017-06-17T03:01:13.116Z,14.08
2017-06-17T03:01:41.264Z,14.11
2017-06-17T03:02:09.256Z,14.01
2017-06-17T03:02:37.313Z,13.95
2017-06-17T03:03:05.466Z,13.99
2017-06-17T03:03:33.584Z,13.91
2017-06-17T03:04:01.643Z,13.95
2017-06-17T03:04:29.979Z,14.01
2017-06-17T03:04:58.036Z,13.99
2017-06-17T03:05:26.210Z,13.94
2017-06-17T03:05:54.364Z,13.9
2017-06-17T03:06:22.501Z,13.97
2017-06-17T03:06:50.664Z,13.95
2017-06-17T03:07:18.930Z,13.97
2017-06-17T03:07:47.001Z,13.95
2017-06-17T03:08:15.031Z,13.95
2017-06-17T03:08:43.149Z,14.01
2017-06-17T03:09:11.252Z,13.97
2017-06-17T03:09:39.560Z,14.01
2017-06-17T03:10:07.656Z,13.94
2017-06-17T03:10:35.822Z,13.94
2017-06-17T03:11:03.818Z,13.93
2017-06-17T03:11:31.620Z,13.93
2017-06-17T03:11:59.736Z,13.95
2017-06-17T03:12:27.740Z,14.01
2017-06-17T03:12:55.890Z,13.99
2017-06-17T03:13:23.989Z,14.01
2017-06-17T03:13:52.084Z,13.95
2017-06-17T03:14:20.139Z,13.99
2017-06-17T03:14:48.370Z,13.95
2017-06-17T03:15:16.411Z,14.01
2017-06-17T03:15:44.489Z,13.91
2017-06-17T03:16:12.610Z,13.95
2017-06-17T03:16:40.855Z,13.99
2017-06-17T03:17:09.130Z,13.94
2017-06-17T03:17:37.046Z,13.9
2017-06-17T03:18:05.182Z,13.88
2017-06-17T03:18:33.381Z,13.88
2017-06-17T03:19:01.459Z,13.9
2017-06-17T03:19:29.656Z,13.88
2017-06-17T03:19:57.834Z,13.84
2017-06-17T03:20:26.081Z,13.88
2017-06-17T03:20:54.205Z,13.86
2017-06-17T03:21:22.305Z,13.81
2017-06-17T03:21:50.499Z,13.83
2017-06-17T03:22:18.515Z,13.86
2017-06-17T03:22:46.705Z,13.78
2017-06-17T03:23:14.809Z,13.81
2017-06-17T03:23:42.900Z,13.79
2017-06-17T03:24:11.113Z,13.79
2017-06-17T03:24:39.315Z,13.73
2017-06-17T03:25:07.459Z,13.7
2017-06-17T03:25:35.676Z,13.75
2017-06-17T03:26:03.840Z,13.73
2017-06-17T03:26:32.026Z,13.76
2017-06-17T03:27:00.069Z,13.73
2017-06-17T03:27:28.304Z,13.76
2017-06-17T03:27:56.377Z,13.78
2017-06-17T03:28:24.559Z,13.75
2017-06-17T03:28:52.569Z,13.7
2017-06-17T03:29:20.752Z,13.66
2017-06-17T03:29:49.043Z,13.68
2017-06-17T03:30:17.229Z,13.63
2017-06-17T03:30:45.408Z,13.65
2017-06-17T03:31:13.498Z,13.62
2017-06-17T03:31:41.684Z,13.62
2017-06-17T03:32:09.947Z,13.63
2017-06-17T03:32:37.999Z,13.68
2017-06-17T03:33:05.924Z,13.62
2017-06-17T03:33:34.029Z,13.66
2017-06-17T03:34:02.222Z,13.66
2017-06-17T03:34:30.351Z,13.6
2017-06-17T03:34:58.567Z,13.6
2017-06-17T03:35:26.671Z,13.6
2017-06-17T03:35:54.928Z,13.48
2017-06-17T03:36:22.950Z,13.55
2017-06-17T03:36:51.087Z,13.54
2017-06-17T03:37:19.290Z,13.51
2017-06-17T03:37:47.433Z,13.48
2017-06-17T03:38:15.604Z,13.5
2017-06-17T03:38:43.761Z,13.48
2017-06-17T03:39:11.866Z,13.42
2017-06-17T03:39:40.009Z,13.51
2017-06-17T03:40:08.250Z,13.36
2017-06-17T03:40:36.215Z,13.48
2017-06-17T03:41:04.334Z,13.58
2017-06-17T03:41:32.459Z,13.4
2017-06-17T03:42:00.542Z,13.44
2017-06-17T03:42:28.756Z,13.42
2017-06-17T03:42:56.952Z,13.44
2017-06-17T03:43:25.033Z,13.53
2017-06-17T03:43:53.296Z,13.42
2017-06-17T03:44:21.527Z,13.53
2017-06-17T03:44:49.795Z,13.51
2017-06-17T03:45:18.067Z,13.65
2017-06-17T03:45:46.304Z,13.66
2017-06-17T03:46:14.562Z,13.69
2017-06-17T03:46:42.779Z,13.69
2017-06-17T03:47:10.921Z,13.76
2017-06-17T03:47:38.999Z,13.76
2017-06-17T03:48:07.092Z,13.81
2017-06-17T03:48:35.219Z,13.9
2017-06-17T03:49:03.440Z,13.87
2017-06-17T03:49:31.636Z,13.88
2017-06-17T03:50:00.019Z,13.87
2017-06-17T03:50:28.068Z,13.9
2017-06-17T03:50:56.152Z,13.86
2017-06-17T03:51:24.304Z,13.93
2017-06-17T03:51:52.467Z,13.93
2017-06-17T03:52:20.584Z,13.93
2017-06-17T03:52:48.854Z,13.84
2017-06-17T03:53:17.069Z,13.83
2017-06-17T03:53:45.288Z,13.86
2017-06-17T03:54:13.445Z,13.83
2017-06-17T03:54:41.577Z,13.94
2017-06-17T03:55:09.813Z,13.88
2017-06-17T03:55:38.020Z,13.88
2017-06-17T03:56:06.246Z,13.9
2017-06-17T03:56:34.491Z,13.88
2017-06-17T03:57:02.624Z,13.94
2017-06-17T03:57:30.821Z,13.94
2017-06-17T03:57:58.841Z,13.95
2017-06-17T03:58:26.981Z,13.95
2017-06-17T03:58:55.077Z,14.01
2017-06-17T03:59:23.292Z,13.93
2017-06-17T03:59:51.391Z,13.87
2017-06-17T04:00:19.748Z,13.87
2017-06-17T04:00:47.927Z,13.81
2017-06-17T04:01:16.195Z,13.78
2017-06-17T04:01:44.420Z,13.69
2017-06-17T04:02:12.619Z,13.7
2017-06-17T04:02:40.822Z,13.75
2017-06-17T04:03:08.822Z,13.72
2017-06-17T04:03:36.926Z,13.62
2017-06-17T04:04:05.050Z,13.68
2017-06-17T04:04:33.242Z,13.7
2017-06-17T04:05:01.359Z,13.66
2017-06-17T04:05:29.567Z,13.62
2017-06-17T04:05:57.595Z,13.6
2017-06-17T04:06:25.611Z,13.58
2017-06-17T04:06:53.837Z,13.5
2017-06-17T04:07:21.964Z,13.55
2017-06-17T04:07:50.184Z,13.57
2017-06-17T04:08:18.426Z,13.5
2017-06-17T04:08:46.653Z,13.5
2017-06-17T04:09:14.873Z,13.57
2017-06-17T04:09:43.018Z,13.51
2017-06-17T04:10:11.352Z,13.54
2017-06-17T04:10:39.447Z,13.48
2017-06-17T04:11:07.500Z,13.35
2017-06-17T04:11:35.507Z,13.54
2017-06-17T04:12:03.642Z,13.48
2017-06-17T04:12:31.641Z,13.55
2017-06-17T04:12:59.869Z,13.6
2017-06-17T04:13:28.003Z,13.73
2017-06-17T04:13:56.101Z,13.79
2017-06-17T04:14:24.254Z,13.76
2017-06-17T04:14:52.488Z,13.79
2017-06-17T04:15:20.777Z,13.9
2017-06-17T04:15:48.910Z,13.88
2017-06-17T04:16:17.044Z,13.94
2017-06-17T04:16:45.056Z,13.88
2017-06-17T04:17:13.204Z,13.87
2017-06-17T04:17:41.411Z,13.88
2017-06-17T04:18:09.624Z,13.88
2017-06-17T04:18:37.636Z,13.88
2017-06-17T04:19:05.809Z,13.91
2017-06-17T04:19:34.071Z,13.95
2017-06-17T04:20:02.325Z,13.91
2017-06-17T04:20:30.467Z,13.87
2017-06-17T04:20:58.660Z,13.83
2017-06-17T04:21:26.888Z,13.88
2017-06-17T04:21:55.137Z,13.86
2017-06-17T04:22:23.163Z,13.72
2017-06-17T04:22:51.097Z,13.73
2017-06-17T04:23:19.243Z,13.73
2017-06-17T04:23:47.391Z,13.68
2017-06-17T04:24:15.629Z,13.6
2017-06-17T04:24:43.860Z,13.57
2017-06-17T04:25:12.114Z,13.48
2017-06-17T04:25:40.262Z,13.4
2017-06-17T04:26:08.490Z,13.54
2017-06-17T04:26:36.746Z,13.44
2017-06-17T04:27:04.754Z,13.42
2017-06-17T04:27:32.988Z,13.39
2017-06-17T04:28:01.114Z,13.4
2017-06-17T04:28:29.377Z,13.4
2017-06-17T04:28:57.556Z,13.32
2017-06-17T04:29:25.755Z,13.32
2017-06-17T04:29:53.982Z,13.37
2017-06-17T04:30:22.345Z,13.31
2017-06-17T04:30:50.510Z,13.37
2017-06-17T04:31:18.660Z,13.32
2017-06-17T04:31:46.916Z,13.37
2017-06-17T04:32:15.140Z,13.36
2017-06-17T04:32:43.167Z,13.35
2017-06-17T04:33:11.113Z,13.39
2017-06-17T04:33:39.213Z,13.28
2017-06-17T04:34:07.253Z,13.27
2017-06-17T04:34:35.332Z,13.27
2017-06-17T04:35:03.354Z,13.31
2017-06-17T04:35:31.754Z,13.35
2017-06-17T04:35:59.862Z,13.35
2017-06-17T04:36:28.072Z,13.36
2017-06-17T04:36:56.312Z,13.36
2017-06-17T04:37:24.518Z,13.29
2017-06-17T04:37:52.565Z,13.25
2017-06-17T04:38:20.643Z,13.25
2017-06-17T04:38:48.907Z,13.25
2017-06-17T04:39:17.117Z,13.16
2017-06-17T04:39:45.214Z,13.14
2017-06-17T04:40:13.331Z,13.11
2017-06-17T04:40:41.404Z,13.07
2017-06-17T04:41:09.392Z,13.11
2017-06-17T04:41:37.594Z,13.03
2017-06-17T04:42:05.807Z,13.07
2017-06-17T04:42:34.047Z,13.1
2017-06-17T04:43:02.062Z,13.03
2017-06-17T04:43:30.290Z,13.1
2017-06-17T04:43:58.525Z,13.03
2017-06-17T04:44:26.655Z,13.1
2017-06-17T04:44:54.778Z,13.06
2017-06-17T04:45:22.965Z,12.99
2017-06-17T04:45:51.214Z,13.01
2017-06-17T04:46:19.199Z,12.99
2017-06-17T04:46:47.471Z,12.86
2017-06-17T04:47:15.654Z,12.95
2017-06-17T04:47:43.653Z,13.01
2017-06-17T04:48:11.683Z,12.99
2017-06-17T04:48:39.923Z,12.94
2017-06-17T04:49:08.087Z,12.99
2017-06-17T04:49:36.313Z,12.99
2017-06-17T04:50:04.563Z,13.01
2017-06-17T04:50:32.948Z,13.02
2017-06-17T04:51:01.163Z,13.1
2017-06-17T04:51:29.281Z,12.99
2017-06-17T04:51:57.207Z,13.13
2017-06-17T04:52:25.451Z,13.06
2017-06-17T04:52:53.595Z,13.03
2017-06-17T04:53:21.720Z,13.03
2017-06-17T04:53:49.903Z,13.11
2017-06-17T04:54:18.048Z,12.98
2017-06-17T04:54:46.142Z,13.07
2017-06-17T04:55:14.232Z,13.03
2017-06-17T04:55:42.334Z,13.13
2017-06-17T04:56:10.572Z,13.02
2017-06-17T04:56:38.728Z,12.96
2017-06-17T04:57:06.951Z,12.96
2017-06-17T04:57:35.103Z,12.92
2017-06-17T04:58:03.303Z,12.94
2017-06-17T04:58:31.445Z,13.11
2017-06-17T04:58:59.571Z,13.13
2017-06-17T04:59:27.675Z,13.11
2017-06-17T04:59:55.804Z,13.11
2017-06-17T05:00:24.010Z,13.11
2017-06-17T05:00:52.229Z,13.13
2017-06-17T05:01:20.455Z,13.09
2017-06-17T05:01:48.587Z,13.13
2017-06-17T05:02:16.806Z,13.03
2017-06-17T05:02:44.905Z,13.02
2017-06-17T05:03:13.029Z,13.06
2017-06-17T05:03:41.266Z,12.96
2017-06-17T05:04:09.296Z,12.99
2017-06-17T05:04:37.416Z,12.88
2017-06-17T05:05:05.597Z,12.94
2017-06-17T05:05:33.724Z,12.86
2017-06-17T05:06:02.040Z,12.88
2017-06-17T05:06:30.238Z,12.91
2017-06-17T05:06:58.405Z,12.86
2017-06-17T05:07:26.564Z,12.78
2017-06-17T05:07:54.712Z,12.84
2017-06-17T05:08:22.732Z,12.84
2017-06-17T05:08:50.969Z,12.71
2017-06-17T05:09:19.142Z,12.8
2017-06-17T05:09:47.243Z,12.81
2017-06-17T05:10:15.345Z,12.88
2017-06-17T05:10:43.494Z,12.86
2017-06-17T05:11:11.794Z,12.86
2017-06-17T05:11:39.943Z,12.94
2017-06-17T05:12:07.978Z,12.84
2017-06-17T05:12:36.070Z,12.86
2017-06-17T05:13:04.159Z,12.96
2017-06-17T05:13:32.206Z,12.95
2017-06-17T05:14:00.346Z,12.95
2017-06-17T05:14:28.475Z,12.92
2017-06-17T05:14:56.564Z,12.84
2017-06-17T05:15:24.738Z,12.86
2017-06-17T05:15:53.002Z,12.83
2017-06-17T05:16:21.233Z,12.98
2017-06-17T05:16:49.437Z,12.86
2017-06-17T05:17:17.644Z,12.84
2017-06-17T05:17:45.688Z,12.86
2017-06-17T05:18:13.835Z,12.88
2017-06-17T05:18:42.037Z,12.89
2017-06-17T05:19:10.130Z,12.84
2017-06-17T05:19:38.147Z,12.86
2017-06-17T05:20:06.235Z,12.89
2017-06-17T05:20:34.329Z,12.91
2017-06-17T05:21:02.680Z,12.88
2017-06-17T05:21:30.892Z,12.88
2017-06-17T05:21:58.842Z,12.83
2017-06-17T05:22:27.062Z,12.89
2017-06-17T05:22:55.168Z,12.81
2017-06-17T05:23:23.344Z,12.8
2017-06-17T05:23:51.552Z,12.83
2017-06-17T05:24:19.697Z,12.91
2017-06-17T05:24:47.910Z,12.73
2017-06-17T05:25:16.139Z,12.8
2017-06-17T05:25:44.240Z,12.8
2017-06-17T05:26:12.504Z,12.83
2017-06-17T05:26:40.578Z,12.83
2017-06-17T05:27:08.517Z,12.81
2017-06-17T05:27:36.717Z,12.81
2017-06-17T05:28:04.921Z,12.77
2017-06-17T05:28:32.995Z,12.84
2017-06-17T05:29:01.089Z,12.84
2017-06-17T05:29:29.342Z,12.8
2017-06-17T05:29:57.420Z,12.83
2017-06-17T05:30:25.492Z,12.8
2017-06-17T05:30:53.547Z,12.8
2017-06-17T05:31:21.841Z,12.8
2017-06-17T05:31:50.090Z,12.73
2017-06-17T05:32:18.283Z,12.8
2017-06-17T05:32:46.441Z,12.81
2017-06-17T05:33:14.485Z,12.78
2017-06-17T05:33:42.654Z,12.77
2017-06-17T05:34:10.681Z,12.76
2017-06-17T05:34:38.847Z,12.83
2017-06-17T05:35:07.049Z,12.78
2017-06-17T05:35:35.242Z,12.8
2017-06-17T05:36:03.423Z,12.76
2017-06-17T05:36:31.706Z,12.76
2017-06-17T05:36:59.713Z,12.77
2017-06-17T05:37:27.819Z,12.76
2017-06-17T05:37:55.862Z,12.76
2017-06-17T05:38:23.995Z,12.74
2017-06-17T05:38:52.028Z,12.73
2017-06-17T05:39:19.932Z,12.73
2017-06-17T05:39:47.970Z,12.71
2017-06-17T05:40:16.080Z,12.7
2017-06-17T05:40:44.304Z,12.73
2017-06-17T05:41:12.631Z,12.83
2017-06-17T05:41:40.643Z,12.78
2017-06-17T05:42:08.712Z,12.86
2017-06-17T05:42:36.843Z,12.84
2017-06-17T05:43:04.961Z,12.83
2017-06-17T05:43:32.968Z,12.88
2017-06-17T05:44:01.109Z,12.86
2017-06-17T05:44:29.208Z,12.83
2017-06-17T05:44:57.303Z,12.99
2017-06-17T05:45:25.413Z,12.88
2017-06-17T05:45:53.634Z,12.84
2017-06-17T05:46:21.841Z,12.94
2017-06-17T05:46:50.076Z,12.86
2017-06-17T05:47:18.013Z,12.96
2017-06-17T05:47:46.175Z,12.89
2017-06-17T05:48:14.220Z,12.86
2017-06-17T05:48:42.295Z,12.96
2017-06-17T05:49:10.427Z,12.84
2017-06-17T05:49:38.577Z,12.95
2017-06-17T05:50:06.712Z,12.89
2017-06-17T05:50:34.676Z,12.96
2017-06-17T05:51:02.925Z,12.96
2017-06-17T05:51:31.241Z,12.98
2017-06-17T05:51:59.348Z,12.94
2017-06-17T05:52:27.589Z,13.02
2017-06-17T05:52:55.587Z,12.98
2017-06-17T05:53:23.749Z,13.1
2017-06-17T05:53:51.942Z,13.11
2017-06-17T05:54:20.049Z,13.02
2017-06-17T05:54:48.252Z,13.1
2017-06-17T05:55:16.357Z,13.07
2017-06-17T05:55:44.561Z,13.01
2017-06-17T05:56:12.891Z,13.07
2017-06-17T05:56:41.274Z,13.07
2017-06-17T05:57:09.284Z,13.06
2017-06-17T05:57:37.418Z,13.11
2017-06-17T05:58:05.518Z,13.11
2017-06-17T05:58:33.662Z,13.1
2017-06-17T05:59:01.894Z,13.09
2017-06-17T05:59:30.098Z,12.99
2017-06-17T05:59:58.274Z,12.96
2017-06-17T06:00:26.417Z,13.09
2017-06-17T06:00:54.614Z,13.14
2017-06-17T06:01:22.787Z,13.06
2017-06-17T06:01:50.968Z,13.13
2017-06-17T06:02:19.088Z,13.11
2017-06-17T06:02:47.262Z,13.07
2017-06-17T06:03:15.459Z,13.06
2017-06-17T06:03:43.633Z,13.09
2017-06-17T06:04:11.853Z,12.98